Bay City, Michigan
Current Conditions -  °F | °C
As of 1:53 AM on Sunday 26 Oct 2014 (Local Time) from KMBS Reporting Station
Clear Clear  
Wind Chill:   Ceiling: Unl
Heat Index:   Visibility: 10mi
Dew Point:   Wind: 9mph
Humidity: 56%   Direction: 280°W
Pressure: 29.83"   Gusts: NA
Location:  43.6°N, 83.88°W
Report Text: KMBS 260553Z 28008KT 10SM CLR 08/00 A2983 RMK AO2 SLP102 T00830000 10133 20072 51008
Loading
Personal Weather Stations






























Interactive Weather Map
Tropical Storm Tracking
New forecast layout! Learn more

10-Day Weather Forecast

Advertisements
Track Severe Weather on mobile